x

South Santa Rosa Is. Ca (46069) Wave Buoy

11:50 - Sat 10th Dec 2016 All times are PST. -8 hours from GMT.

  • Sig Wave height 4.3ft
  • Swell Direction
  • Peak Period 14s
  • Average Period 6s
  • Wind
    16mph, 18mph gusts
  • Sea Temp 59°f
  • Air Temp 59°f
  • Sea Pressure 1021.9mb
  • South Santa Rosa Is. Ca
  • South Santa Rosa Is. Ca

More Historic Weather Station data

Upgrade to MSW Pro to gain access to the past 30 days of data for over 8000 Wavebouys and Weather Stations around the globe.

Join Pro

Comparision Forecast

View Surf forecast
   
sam. 12/10 11:50 4.5ft 14s 6s 16 18 mph 1021.9mb 59f 59f
10:50 5ft 9s 6s 16 20 mph 1022.7mb 59f 59f
9:50 5ft 14s 6s 18 22 mph 1022.9mb 59f 59f
8:50 5ft 9s 6s 20 25 mph 1022.1mb 59f 58f
7:50 5ft 15s 6s 20 27 mph 1021.9mb 59f 59f
6:50 5.5ft 10s 6s 18 22 mph 1021.6mb 59f 59f
5:50 5ft 9s 6s 20 25 mph 1021.6mb 59f 59f
4:50 5ft 15s 7s 18 22 mph 1021.3mb 59f 59f
3:50 5ft 9s 7s 13 18 mph 1021.9mb 59f 59f
2:50 5ft 15s 7s 16 18 mph 1022mb 59f 59f
1:50 5.5ft 9s 7s 16 20 mph 1022.1mb 59f 59f
12:50 5ft 15s 7s 16 20 mph 1021.8mb 59f 59f
ven. 12/09 11:50 5ft 15s 7s 16 20 mph 1022.4mb 59f 59f
10:50 4.5ft 9s 6s 16 20 mph 1022.7mb 59f 59f
9:50 5ft 15s 6s 16 18 mph 1022.6mb 59f 59f
8:50 5ft 15s 7s 18 22 mph 1022.3mb 59f 59f
7:50 4.5ft 15s 6s 18 20 mph 1022.2mb 59f 59f
6:50 5ft 16s 7s 16 18 mph 1021.8mb 59f 59f
5:50 4.5ft 16s 7s 18 20 mph 1021.6mb 59f 59f
4:50 4.5ft 9s 7s 16 20 mph 1021.8mb 59f 59f
3:50 4.5ft 16s 7s 13 18 mph 1021.9mb 59f 59f
2:50 4.5ft 16s 7s 13 16 mph 1022.5mb 59f 59f
1:50 4.5ft 8s 7s 13 16 mph 1022.8mb 59f 59f
12:50 4.5ft 16s 7s 16 18 mph 1023.7mb 59f 59f
11:50 5ft 16s 8s 13 16 mph 1024.5mb 59f 59f
10:50 5ft 16s 7s 11 13 mph 1025.5mb 59f 59f
9:50 4.5ft 16s 7s 9 11 mph 1025.6mb 59f 59f
8:50 5ft 17s 8s 9 11 mph 1025.1mb 59f 58f
7:50 5ft 16s 8s 9 11 mph 1024.8mb 59f 58f
6:50 5ft 9s 8s 9 11 mph 1024.5mb 59f 58f
5:50 5ft 17s 8s 9 11 mph 1024mb 59f 58f
4:50 4.5ft 16s 8s 9
mph
1024mb 59f 58f
3:50 4.5ft 8s 8s 9 11 mph 1024.2mb 59f 59f
2:50 4.5ft 16s 8s 7 9 mph 1024.6mb 59f 59f
1:50 4.5ft 9s 8s 9
mph
1024.8mb 59f 58f
12:50 4.5ft 9s 8s 4 7 mph 1024.7mb 58f 58f
jeu. 12/08 11:50 3.5ft 15s 8s 4
mph
1024.8mb 58f 58f
10:50 3ft 9s 7s 7
mph
1024.9mb 58f 58f
9:50 3.5ft 15s 8s 11
mph
1025mb 58f 58f
8:50 2.5ft 15s 7s 11
mph
1024.7mb 58f 58f
7:50 2.5ft 15s 8s 7 9 mph 1024.5mb 58f 58f
6:50 3ft 16s 8s 7
mph
1024.5mb 58f 58f
5:50 2.5ft 16s 8s 4
mph
1024mb 58f 58f
4:50 2.5ft 15s 8s 2
mph
1023.7mb 58f 58f
3:50 2.5ft 15s 8s 4
mph
1023.6mb 58f 58f
2:50 2.5ft 16s 8s 2 4 mph 1023.7mb 59f 58f
1:50 2.5ft 12s 8s 4 7 mph 1023.4mb 58f 58f
12:50 2.5ft 15s 8s 4 7 mph 1023.8mb 58f 58f
11:50 3ft 16s 8s 4 7 mph 1024.6mb 58f 58f
10:50 3ft 16s 8s 4
mph
1025.2mb 58f 58f
9:50 3.5ft 12s 8s 4
mph
1025.1mb 57f 57f
8:50 3.5ft 12s 8s 2
mph
1024.6mb 57f 58f
7:50 3ft 11s 7s 4 7 mph 1023.6mb 57f 57f
6:50 3.5ft 12s 8s 7
mph
1023mb 57f 56f
5:50 4ft 13s 8s 7 9 mph 1022.4mb 57f 56f
4:50 4.5ft 13s 8s 7 9 mph 1021.9mb 57f 56f
3:50 4.5ft 12s 8s 7 9 mph 1021.7mb 57f 55f
2:50 5ft 12s 8s 11 13 mph 1021.9mb 57f 56f
1:50 5ft 11s 8s 9 11 mph 1021.8mb 57f 56f
12:50 5ft 13s 8s 9 11 mph 1021.7mb 57f 56f
mer. 12/07 9:50 6ft 13s 7s 13 16 mph 1021.9mb 57f 55f
8:50 6ft 13s 7s 13 18 mph 1021.1mb 57f 55f
7:50 5ft 14s 7s 16 20 mph 1020.8mb 57f 55f
6:50 6.5ft 13s 8s 18 20 mph 1020.5mb 57f 55f
5:50 6.5ft 14s 7s 18 22 mph 1020mb 57f 55f
4:50 6.5ft 13s 7s 16 20 mph 1019.5mb 57f 55f
3:50 6ft 13s 6s 18 20 mph 1019.3mb 57f 55f
2:50 6.5ft 13s 6s 18 20 mph 1019.4mb 57f 55f
1:50 7ft 15s 6s 20 22 mph 1019.2mb 57f 55f
12:50 7ft 14s 6s 20 25 mph 1019.3mb 57f 55f
11:50 7ft 14s 6s 20 22 mph 1019.8mb 57f 55f
10:50 7.5ft 11s 6s 22 27 mph 1020mb 57f 55f
8:50 7ft 13s 7s 25 29 mph 1019.2mb 57f 55f
7:50 7ft 12s 6s 22 27 mph 1018.2mb 57f 55f
6:50 7.5ft 14s 7s 20 25 mph 1017.7mb 57f 55f
5:50 8.5ft 12s 7s 22 25 mph 1017.7mb 57f 55f
4:50 9ft 11s 7s 22 27 mph 1017.5mb 58f 55f
3:50 8.5ft 12s 7s 20 25 mph 1017.5mb 58f 55f
2:50 9ft 13s 7s 25 27 mph 1017.7mb 58f 55f
1:50 8.5ft 13s 7s 25 27 mph 1017.3mb 58f 55f
12:50 9.5ft 13s 7s 25 27 mph 1017.2mb 58f 55f
mar. 12/06 11:50 11ft 9s 7s 25 31 mph 1017.2mb 58f 56f
10:50 9.5ft 13s 7s 27 31 mph 1017mb 58f 55f
9:50 9.5ft 9s 7s 27 31 mph 1016.9mb 58f 55f
8:50 8.5ft 13s 6s 25 31 mph 1016.5mb 58f 56f